Time;durP1;ratioP1;P1;durP2;ratioP2;P2;SDS_P1;SDS_P2;PMS_P1;PMS_P2;Temp;Humidity;BMP_temperature;BMP_pressure;BME280_temperature;BME280_humidity;BME280_pressure;Samples;Min_cycle;Max_cycle;Signal;HPM_P1;HPM_P2
2022/10/23 00:00:35;;;;;;;0.80;0.80;;;;;;;11.47;100.00;100264.53;5028436;28;20976;-57
2022/10/23 00:03:02;;;;;;;1.30;1.20;;;;;;;11.44;100.00;100268.16;5009345;28;20921;-56
2022/10/23 00:05:29;;;;;;;0.70;0.70;;;;;;;11.57;100.00;100274.84;5022241;28;20965;-57
2022/10/23 00:07:58;;;;;;;0.50;0.40;;;;;;;11.51;100.00;100275.03;5024629;28;20880;-57
2022/10/23 00:10:26;;;;;;;1.60;0.70;;;;;;;11.49;100.00;100268.88;5030064;28;20542;-57
2022/10/23 00:12:53;;;;;;;7.03;0.80;;;;;;;11.42;100.00;100269.13;5035496;28;20970;-56
2022/10/23 00:15:21;;;;;;;0.50;0.40;;;;;;;11.35;100.00;100267.59;5035289;28;20960;-57
2022/10/23 00:17:48;;;;;;;4.40;0.90;;;;;;;11.25;100.00;100262.56;5028335;28;20705;-57
2022/10/23 00:20:15;;;;;;;0.53;0.50;;;;;;;11.23;100.00;100256.41;5030858;28;21018;-57
2022/10/23 00:22:42;;;;;;;0.90;0.70;;;;;;;11.31;100.00;100260.63;5025922;28;20546;-57
2022/10/23 00:25:09;;;;;;;1.67;1.37;;;;;;;11.24;100.00;100254.66;5031752;28;20478;-57
2022/10/23 00:27:36;;;;;;;1.03;0.50;;;;;;;11.14;100.00;100251.41;5035057;28;20564;-57
2022/10/23 00:30:04;;;;;;;1.10;0.77;;;;;;;11.13;100.00;100256.75;5021732;28;20529;-57
2022/10/23 00:32:30;;;;;;;2.50;1.53;;;;;;;11.17;100.00;100255.75;5034426;28;20483;-57
2022/10/23 00:35:02;;;;;;;0.90;0.90;;;;;;;11.12;100.00;100257.69;5035498;28;20460;-57
2022/10/23 00:37:28;;;;;;;36.67;1.33;;;;;;;11.04;100.00;100249.94;5035417;28;20590;-56
2022/10/23 00:39:55;;;;;;;4.97;1.10;;;;;;;10.84;100.00;100252.34;5034966;28;20459;-57
2022/10/23 00:42:21;;;;;;;0.50;0.40;;;;;;;11.01;100.00;100243.84;5024200;28;21036;-57
2022/10/23 00:44:47;;;;;;;0.70;0.50;;;;;;;10.82;100.00;100246.19;5032909;28;20455;-57
2022/10/23 00:47:14;;;;;;;0.80;0.60;;;;;;;10.88;100.00;100238.03;5035060;28;20869;-57
2022/10/23 00:49:40;;;;;;;3.80;0.70;;;;;;;10.81;100.00;100234.66;5035144;28;20454;-56
2022/10/23 00:52:12;;;;;;;0.60;0.60;;;;;;;10.98;100.00;100226.19;5023518;28;20476;-57
2022/10/23 00:54:42;;;;;;;3.33;1.00;;;;;;;10.96;100.00;100220.03;5020902;28;20481;-57
2022/10/23 00:57:13;;;;;;;1.60;1.50;;;;;;;10.92;100.00;100221.06;5022122;28;20960;-57
2022/10/23 00:59:39;;;;;;;0.70;0.60;;;;;;;10.89;100.00;100216.72;5015543;28;20953;-57
2022/10/23 01:02:07;;;;;;;3.47;1.27;;;;;;;10.83;100.00;100210.72;5032497;28;20499;-57
2022/10/23 01:04:36;;;;;;;5.73;0.63;;;;;;;10.92;100.00;100213.94;5035031;28;20455;-56
2022/10/23 01:07:08;;;;;;;0.70;0.50;;;;;;;11.08;100.00;100213.47;5035023;28;20875;-57
2022/10/23 01:09:35;;;;;;;12.70;0.90;;;;;;;11.02;100.00;100217.19;5034711;28;20521;-57
2022/10/23 01:12:15;;;;;;;0.60;0.50;;;;;;;11.01;100.00;100219.91;5046035;28;20940;-57
2022/10/23 01:14:47;;;;;;;11.53;0.90;;;;;;;11.05;100.00;100226.88;5025770;28;20451;-57
2022/10/23 01:17:36;;;;;;;0.83;0.70;;;;;;;11.00;100.00;100221.69;5032526;28;20452;-57
2022/10/23 01:20:12;;;;;;;0.60;0.50;;;;;;;11.09;100.00;100225.84;5024423;28;20467;-56
2022/10/23 01:23:06;;;;;;;0.83;0.73;;;;;;;11.02;100.00;100234.94;5031376;28;20491;-57
2022/10/23 01:26:08;;;;;;;1.00;0.33;;;;;;;11.10;100.00;100238.22;5031859;28;20459;-57
2022/10/23 01:28:41;;;;;;;1.23;0.60;;;;;;;10.94;100.00;100236.03;5031663;28;20795;-57
2022/10/23 01:31:13;;;;;;;0.70;0.57;;;;;;;10.92;100.00;100235.22;5019988;28;20543;-57
2022/10/23 01:33:50;;;;;;;1.33;1.00;;;;;;;10.94;100.00;100230.72;5030643;28;20451;-57
2022/10/23 01:36:22;;;;;;;0.80;0.77;;;;;;;10.94;100.00;100220.09;5031399;28;20795;-57
2022/10/23 01:38:55;;;;;;;9.90;1.17;;;;;;;11.03;100.00;100223.38;5031653;28;20509;-57
2022/10/23 01:41:28;;;;;;;7.70;0.80;;;;;;;10.92;100.00;100224.59;5028126;28;20491;-57
2022/10/23 01:44:04;;;;;;;0.60;0.60;;;;;;;11.08;100.00;100213.47;5021734;28;20474;-57
2022/10/23 01:46:34;;;;;;;0.63;0.63;;;;;;;11.09;100.00;100220.50;5016382;28;20455;-57
2022/10/23 01:49:01;;;;;;;0.60;0.47;;;;;;;11.14;100.00;100213.28;5031613;28;20578;-57
2022/10/23 01:51:32;;;;;;;4.20;0.70;;;;;;;11.08;100.00;100194.84;5025045;28;20993;-57
2022/10/23 01:54:00;;;;;;;0.90;0.60;;;;;;;11.17;100.00;100183.91;5024025;28;20932;-57
2022/10/23 01:56:31;;;;;;;0.60;0.60;;;;;;;11.12;100.00;100167.25;5030852;28;21006;-57
2022/10/23 01:59:03;;;;;;;0.50;0.50;;;;;;;11.06;100.00;100175.41;5031169;28;20452;-57
2022/10/23 02:01:31;;;;;;;0.60;0.30;;;;;;;11.28;100.00;100179.97;5023045;28;20572;-57
2022/10/23 02:04:01;;;;;;;0.60;0.60;;;;;;;11.39;100.00;100171.66;5015206;28;20934;-57
2022/10/23 02:06:28;;;;;;;0.50;0.50;;;;;;;11.43;100.00;100175.06;5030902;28;20534;-57
2022/10/23 02:08:55;;;;;;;1.80;1.70;;;;;;;11.52;100.00;100170.31;5028933;28;20456;-57
2022/10/23 02:11:21;;;;;;;0.77;0.60;;;;;;;11.55;100.00;100171.97;5033935;28;20477;-57
2022/10/23 02:13:58;;;;;;;1.00;0.77;;;;;;;11.50;100.00;100187.22;5029041;28;20904;-57
2022/10/23 02:16:41;;;;;;;0.80;0.80;;;;;;;11.48;100.00;100183.75;5021331;28;20455;-57
2022/10/23 02:19:42;;;;;;;1.00;0.83;;;;;;;11.47;100.00;100184.66;5018767;28;20878;-57
2022/10/23 02:22:15;;;;;;;1.83;1.73;;;;;;;11.61;100.00;100181.53;5017228;28;20491;-57
2022/10/23 02:24:56;;;;;;;9.53;2.10;;;;;;;11.60;100.00;100178.00;5030573;28;20813;-57
2022/10/23 02:27:29;;;;;;;2.27;1.53;;;;;;;11.40;100.00;100172.50;5030773;28;20533;-57
2022/10/23 02:30:06;;;;;;;0.83;0.50;;;;;;;11.45;100.00;100179.41;5016575;28;20494;-58
2022/10/23 02:32:34;;;;;;;7.27;3.10;;;;;;;11.47;100.00;100172.22;5030481;28;20463;-57
2022/10/23 02:35:01;;;;;;;2.70;1.10;;;;;;;11.22;100.00;100168.66;5016532;28;20880;-56
2022/10/23 02:37:28;;;;;;;2.70;2.20;;;;;;;11.31;100.00;100171.03;5030252;28;20590;-57
2022/10/23 02:39:54;;;;;;;3.47;1.60;;;;;;;11.45;100.00;100175.88;5029877;28;20802;-57
2022/10/23 02:42:25;;;;;;;5.00;3.43;;;;;;;11.51;100.00;100173.88;5020407;28;20530;-57
2022/10/23 02:45:26;;;;;;;5.60;2.00;;;;;;;11.44;100.00;100183.00;5027595;28;20448;-57
2022/10/23 02:48:03;;;;;;;6.33;2.13;;;;;;;11.37;100.00;100184.09;5029790;28;20489;-56
2022/10/23 02:50:54;;;;;;;2.50;1.57;;;;;;;11.32;100.00;100175.41;5041342;28;20482;-56
2022/10/23 02:53:38;;;;;;;2.17;2.03;;;;;;;11.18;100.00;100157.25;5010546;28;20457;-57
2022/10/23 02:56:32;;;;;;;2.87;1.47;;;;;;;11.08;100.00;100154.94;5026690;28;20513;-57
2022/10/23 02:59:30;;;;;;;2.73;0.83;;;;;;;11.24;100.00;100149.09;5029526;28;20506;-57
2022/10/23 03:02:01;;;;;;;2.20;2.10;;;;;;;11.36;100.00;100145.09;5027724;28;20499;-57
2022/10/23 03:04:31;;;;;;;1.53;1.40;;;;;;;11.28;100.00;100153.38;5030116;28;20801;-57
2022/10/23 03:06:57;;;;;;;1.63;1.53;;;;;;;11.30;100.00;100140.00;5029858;28;20452;-56
2022/10/23 03:09:25;;;;;;;2.07;1.87;;;;;;;11.20;100.00;100134.13;5030112;28;20434;-57
2022/10/23 03:11:51;;;;;;;1.60;1.50;;;;;;;11.35;100.00;100140.72;5042889;28;20547;-57
2022/10/23 03:14:18;;;;;;;2.13;1.43;;;;;;;11.37;100.00;100135.34;5016007;28;20474;-57
2022/10/23 03:16:45;;;;;;;3.37;1.60;;;;;;;11.33;100.00;100131.06;5029448;28;20519;-57
2022/10/23 03:19:11;;;;;;;1.70;1.60;;;;;;;11.27;100.00;100126.81;5021733;28;20486;-57
2022/10/23 03:21:42;;;;;;;1.10;1.00;;;;;;;11.19;100.00;100132.38;5022779;28;20499;-56
2022/10/23 03:24:09;;;;;;;2.60;1.27;;;;;;;11.23;100.00;100138.47;5012885;28;20460;-57
2022/10/23 03:26:35;;;;;;;2.90;1.77;;;;;;;11.27;100.00;100135.66;5024041;28;21007;-56
2022/10/23 03:29:02;;;;;;;2.53;1.53;;;;;;;11.21;100.00;100132.31;5036323;28;20975;-56
2022/10/23 03:31:28;;;;;;;4.50;2.20;;;;;;;11.44;100.00;100124.44;5022444;28;20909;-57
2022/10/23 03:33:54;;;;;;;1.63;1.40;;;;;;;11.47;100.00;100126.13;5017800;28;20818;-57
2022/10/23 03:36:21;;;;;;;2.20;1.03;;;;;;;11.45;100.00;100119.97;5029384;28;20505;-57
2022/10/23 03:38:47;;;;;;;0.90;0.80;;;;;;;11.37;100.00;100122.03;5029430;28;20510;-57
2022/10/23 03:41:14;;;;;;;1.83;1.73;;;;;;;11.34;100.00;100135.44;5026893;28;20491;-57
2022/10/23 03:43:40;;;;;;;2.83;1.83;;;;;;;11.35;100.00;100139.84;5017491;28;20452;-57
2022/10/23 03:46:11;;;;;;;1.60;0.97;;;;;;;11.36;100.00;100137.13;5026456;28;20459;-57
2022/10/23 03:48:38;;;;;;;1.17;1.03;;;;;;;11.42;100.00;100136.94;5019105;28;20514;-56
2022/10/23 03:51:05;;;;;;;1.70;1.60;;;;;;;11.47;100.00;100128.78;5026056;28;20484;-57
2022/10/23 03:53:31;;;;;;;5.40;1.17;;;;;;;11.42;100.00;100122.75;5019708;28;20451;-57
2022/10/23 03:55:58;;;;;;;1.90;1.80;;;;;;;11.37;100.00;100122.03;5029040;28;20874;-57
2022/10/23 03:58:24;;;;;;;1.77;1.67;;;;;;;11.33;100.00;100133.72;5019015;28;20456;-57
2022/10/23 04:00:50;;;;;;;4.20;1.17;;;;;;;11.33;100.00;100134.56;5021787;28;20461;-56
2022/10/23 04:03:17;;;;;;;2.37;1.60;;;;;;;11.31;100.00;100138.22;5017978;28;20499;-57
2022/10/23 04:05:43;;;;;;;2.20;1.97;;;;;;;11.39;100.00;100136.19;5028345;28;20459;-57
2022/10/23 04:08:10;;;;;;;2.67;0.63;;;;;;;11.33;100.00;100137.25;5018449;28;20456;-57
2022/10/23 04:10:36;;;;;;;2.77;2.13;;;;;;;11.33;100.00;100139.91;5028543;28;20426;-57
2022/10/23 04:13:02;;;;;;;3.13;1.83;;;;;;;11.23;100.00;100147.31;5030900;28;20480;-57
2022/10/23 04:15:29;;;;;;;2.27;2.10;;;;;;;11.32;100.00;100124.84;5028477;28;20455;-57
2022/10/23 04:17:55;;;;;;;1.83;1.73;;;;;;;11.17;100.00;100109.41;5020960;28;20452;-57
2022/10/23 04:20:21;;;;;;;1.43;1.33;;;;;;;11.16;100.00;100113.00;5025775;28;20590;-57
2022/10/23 04:22:48;;;;;;;1.83;1.73;;;;;;;10.97;100.00;100120.75;5018420;28;20908;-57
2022/10/23 04:25:15;;;;;;;1.83;1.23;;;;;;;11.11;100.00;100120.28;5026064;28;20863;-57
2022/10/23 04:27:41;;;;;;;2.13;1.23;;;;;;;10.84;100.00;100125.59;5028750;28;20451;-56
2022/10/23 04:30:09;;;;;;;2.47;2.10;;;;;;;10.88;100.00;100118.38;5024739;28;20951;-57
2022/10/23 04:32:35;;;;;;;1.97;1.77;;;;;;;10.96;100.00;100129.59;5019084;28;21040;-57
2022/10/23 04:35:02;;;;;;;1.93;1.70;;;;;;;10.97;100.00;100128.72;5030687;28;20456;-57
2022/10/23 04:37:28;;;;;;;1.70;1.50;;;;;;;11.15;100.00;100128.09;5029056;28;20463;-57
2022/10/23 04:39:55;;;;;;;1.33;1.23;;;;;;;11.16;100.00;100137.81;5028208;28;20510;-57
2022/10/23 04:42:21;;;;;;;1.17;0.83;;;;;;;10.94;100.00;100134.97;5018434;28;20496;-57
2022/10/23 04:44:48;;;;;;;1.20;0.80;;;;;;;10.85;100.00;100129.97;5025703;28;20805;-57
2022/10/23 04:47:14;;;;;;;3.80;1.33;;;;;;;10.91;100.00;100137.75;5028771;28;20451;-57
2022/10/23 04:49:40;;;;;;;8.00;1.00;;;;;;;10.88;100.00;100139.66;5028255;28;20451;-57
2022/10/23 04:52:07;;;;;;;12.43;1.20;;;;;;;10.64;100.00;100131.53;5018478;28;20468;-57
2022/10/23 04:54:37;;;;;;;2.03;1.73;;;;;;;10.87;100.00;100128.13;5026606;28;20885;-57
2022/10/23 04:57:04;;;;;;;0.87;0.67;;;;;;;11.01;100.00;100121.50;5032088;28;20454;-57
2022/10/23 04:59:30;;;;;;;1.00;0.83;;;;;;;10.86;100.00;100118.41;5032388;28;20509;-57
2022/10/23 05:01:57;;;;;;;0.93;0.90;;;;;;;10.80;100.00;100120.41;5031446;28;20491;-57
2022/10/23 05:04:23;;;;;;;1.77;1.20;;;;;;;10.77;100.00;100116.06;5032271;28;20550;-57
2022/10/23 05:06:49;;;;;;;0.70;0.60;;;;;;;10.77;100.00;100112.53;5032179;28;20514;-57
2022/10/23 05:09:16;;;;;;;1.37;1.27;;;;;;;10.73;100.00;100106.44;5030994;28;20459;-57
2022/10/23 05:11:42;;;;;;;1.30;1.20;;;;;;;10.67;100.00;100104.84;5031523;28;20480;-57
2022/10/23 05:14:09;;;;;;;2.63;1.10;;;;;;;10.43;100.00;100100.31;5032085;28;20498;-57
2022/10/23 05:16:44;;;;;;;1.47;1.37;;;;;;;10.60;100.00;100094.47;5032061;28;20501;-57
2022/10/23 05:19:17;;;;;;;1.23;1.13;;;;;;;10.74;100.00;100092.22;5030288;28;20450;-57
2022/10/23 05:21:54;;;;;;;1.10;0.93;;;;;;;10.25;100.00;100095.53;5029110;28;20495;-57
2022/10/23 05:24:25;;;;;;;1.90;1.00;;;;;;;10.57;100.00;100092.78;5021264;28;21061;-57
2022/10/23 05:26:52;;;;;;;1.00;0.80;;;;;;;10.53;100.00;100092.91;5031852;28;20455;-57
2022/10/23 05:29:19;;;;;;;1.20;1.10;;;;;;;10.37;100.00;100084.53;5032041;28;20452;-57
2022/10/23 05:31:51;;;;;;;1.43;1.33;;;;;;;10.39;100.00;100085.38;5027083;28;20530;-57
2022/10/23 05:34:21;;;;;;;0.90;0.90;;;;;;;10.57;100.00;100081.28;5026099;28;20468;-57
2022/10/23 05:36:48;;;;;;;5.70;0.60;;;;;;;10.62;100.00;100079.34;5030470;28;20456;-57
2022/10/23 05:39:14;;;;;;;1.87;1.37;;;;;;;10.70;100.00;100082.63;5031056;28;20965;-57
2022/10/23 05:41:41;;;;;;;0.60;0.60;;;;;;;10.77;100.00;100083.28;5026731;28;20547;-58
2022/10/23 05:44:07;;;;;;;0.77;0.77;;;;;;;10.98;100.00;100079.94;5030910;28;20455;-57
2022/10/23 05:46:34;;;;;;;1.47;1.37;;;;;;;10.99;100.00;100076.34;5024878;28;20502;-57
2022/10/23 05:49:00;;;;;;;0.60;0.50;;;;;;;10.94;100.00;100076.47;5030898;28;20451;-57
2022/10/23 05:51:26;;;;;;;13.03;1.37;;;;;;;10.77;100.00;100077.97;5030315;28;20885;-57
2022/10/23 05:53:53;;;;;;;3.23;1.33;;;;;;;10.90;100.00;100071.31;5030062;28;20490;-57
2022/10/23 05:56:20;;;;;;;1.10;0.97;;;;;;;10.87;100.00;100072.28;5031034;28;20456;-56
2022/10/23 05:58:46;;;;;;;0.90;0.90;;;;;;;10.85;100.00;100075.94;5028576;28;20452;-57
2022/10/23 06:01:13;;;;;;;0.60;0.60;;;;;;;10.97;100.00;100065.75;5030188;28;20498;-57
2022/10/23 06:03:40;;;;;;;1.10;0.97;;;;;;;10.88;100.00;100070.50;5030098;28;20494;-56
2022/10/23 06:06:07;;;;;;;1.37;0.90;;;;;;;10.99;100.00;100076.34;5024482;28;20457;-56
2022/10/23 06:08:34;;;;;;;2.30;0.70;;;;;;;10.92;100.00;100073.00;5023332;28;20922;-56
2022/10/23 06:11:08;;;;;;;0.90;0.80;;;;;;;11.16;100.00;100073.09;5023528;28;20463;-55
2022/10/23 06:13:35;;;;;;;7.73;1.47;;;;;;;11.26;100.00;100066.53;5018980;28;20863;-55
2022/10/23 06:16:10;;;;;;;1.00;1.00;;;;;;;11.16;100.00;100063.31;5029596;28;20456;-56
2022/10/23 06:18:36;;;;;;;4.73;1.07;;;;;;;11.09;100.00;100068.91;5019110;28;20510;-56
2022/10/23 06:21:03;;;;;;;1.50;1.40;;;;;;;11.09;100.00;100063.56;5030600;28;20943;-56
2022/10/23 06:23:31;;;;;;;0.90;0.80;;;;;;;11.42;100.00;100062.41;5030598;28;20499;-56
2022/10/23 06:25:58;;;;;;;0.80;0.70;;;;;;;11.16;100.00;100055.34;5029485;28;20456;-56
2022/10/23 06:28:25;;;;;;;1.30;1.20;;;;;;;11.19;100.00;100057.03;5030443;28;20502;-56
2022/10/23 06:30:51;;;;;;;1.37;1.33;;;;;;;11.09;100.00;100064.44;5030252;28;20455;-56
2022/10/23 06:33:18;;;;;;;1.30;1.27;;;;;;;11.35;100.00;100060.00;5030679;28;20510;-56
2022/10/23 06:35:45;;;;;;;1.27;1.17;;;;;;;11.22;100.00;100071.06;5030751;28;20459;-56
2022/10/23 06:38:11;;;;;;;1.90;1.47;;;;;;;11.26;100.00;100069.22;5030539;28;20459;-56
2022/10/23 06:40:38;;;;;;;9.83;0.90;;;;;;;11.24;100.00;100068.41;5030535;28;20452;-56
2022/10/23 06:43:04;;;;;;;1.80;1.70;;;;;;;11.20;100.00;100080.03;5016921;28;20917;-56
2022/10/23 06:45:35;;;;;;;11.17;3.00;;;;;;;11.15;100.00;100079.34;5030022;28;20455;-56
2022/10/23 06:48:02;;;;;;;1.10;1.10;;;;;;;11.20;100.00;100078.25;5030491;28;20447;-56
2022/10/23 06:50:31;;;;;;;2.40;0.97;;;;;;;11.32;100.00;100086.72;5029985;28;20451;-56
2022/10/23 06:52:57;;;;;;;2.67;1.40;;;;;;;11.31;100.00;100071.69;5029898;28;20471;-56
2022/10/23 06:55:23;;;;;;;0.60;0.60;;;;;;;11.23;100.00;100071.94;5029953;28;20455;-56
2022/10/23 06:57:50;;;;;;;1.30;1.20;;;;;;;11.22;100.00;100075.53;5029959;28;20458;-56
2022/10/23 07:00:16;;;;;;;2.03;1.83;;;;;;;11.37;100.00;100075.00;5030081;28;20525;-56
2022/10/23 07:02:43;;;;;;;1.93;1.83;;;;;;;11.44;100.00;100065.00;5029659;28;20542;-56
2022/10/23 07:05:10;;;;;;;5.23;2.40;;;;;;;11.68;100.00;100072.13;5030276;28;20498;-55
2022/10/23 07:07:39;;;;;;;2.67;2.47;;;;;;;11.70;100.00;100053.44;5029769;28;20527;-56
2022/10/23 07:10:06;;;;;;;2.30;2.10;;;;;;;11.38;100.00;100059.94;5029775;28;20508;-56
2022/10/23 07:12:33;;;;;;;0.73;0.73;;;;;;;11.26;100.00;100064.75;5036671;28;20476;-56
2022/10/23 07:14:59;;;;;;;1.17;1.07;;;;;;;11.41;100.00;100065.13;5022298;28;20456;-56
2022/10/23 07:17:28;;;;;;;0.80;0.80;;;;;;;11.56;100.00;100068.09;5024755;28;20456;-56
2022/10/23 07:19:54;;;;;;;1.23;1.07;;;;;;;11.61;100.00;100067.94;5021943;28;20879;-56
2022/10/23 07:22:20;;;;;;;1.33;1.27;;;;;;;11.41;100.00;100065.13;5029251;28;20553;-56
2022/10/23 07:24:47;;;;;;;1.23;1.13;;;;;;;11.53;100.00;100062.03;5029347;28;20451;-56
2022/10/23 07:27:13;;;;;;;1.20;1.20;;;;;;;11.71;100.00;100063.16;5029100;28;20460;-56
2022/10/23 07:29:40;;;;;;;2.03;1.93;;;;;;;11.76;100.00;100054.06;5029570;28;20452;-56
2022/10/23 07:32:08;;;;;;;2.23;1.57;;;;;;;11.74;100.00;100071.88;5029302;28;20549;-56
2022/10/23 07:34:35;;;;;;;1.60;1.20;;;;;;;11.95;100.00;100067.59;5029377;28;20811;-56
2022/10/23 07:37:02;;;;;;;6.50;1.70;;;;;;;11.95;100.00;100067.59;5029525;28;20448;-56
2022/10/23 07:39:28;;;;;;;2.97;2.80;;;;;;;12.02;100.00;100068.22;5028960;28;20822;-56
2022/10/23 07:41:54;;;;;;;2.70;2.60;;;;;;;12.00;100.00;100064.75;5022722;28;20539;-56
2022/10/23 07:44:21;;;;;;;1.60;1.50;;;;;;;12.22;100.00;100070.13;5022665;28;20447;-56
2022/10/23 07:46:52;;;;;;;2.83;2.53;;;;;;;12.26;100.00;100077.06;5028940;28;20447;-56
2022/10/23 07:49:18;;;;;;;1.90;1.63;;;;;;;11.79;100.00;100079.75;5029222;28;20451;-56
2022/10/23 07:51:45;;;;;;;1.60;1.50;;;;;;;11.76;100.00;100075.34;5028999;28;20472;-56
2022/10/23 07:54:17;;;;;;;3.77;3.57;;;;;;;11.74;100.00;100063.91;5028725;28;20811;-55
2022/10/23 07:56:43;;;;;;;3.80;1.40;;;;;;;11.99;100.00;100049.69;5029002;28;20960;-56
2022/10/23 07:59:12;;;;;;;2.50;2.10;;;;;;;11.89;100.00;100058.97;5029124;28;20510;-56
2022/10/23 08:01:41;;;;;;;2.50;1.17;;;;;;;12.30;100.00;100065.34;5028677;28;20475;-56
2022/10/23 08:04:09;;;;;;;2.57;2.37;;;;;;;12.02;100.00;100058.44;5028830;28;20498;-56
2022/10/23 08:06:35;;;;;;;1.10;1.00;;;;;;;11.91;100.00;100052.63;5028770;28;20459;-56
2022/10/23 08:09:02;;;;;;;1.57;1.47;;;;;;;12.09;100.00;100051.09;5028875;28;20448;-55
2022/10/23 08:11:34;;;;;;;1.50;1.40;;;;;;;11.86;100.00;100051.94;5039476;28;20511;-56
2022/10/23 08:14:05;;;;;;;2.20;2.00;;;;;;;11.71;100.00;100047.16;5017696;28;20451;-56
2022/10/23 08:16:33;;;;;;;3.00;2.70;;;;;;;12.08;100.00;100042.22;5028608;28;20482;-56
2022/10/23 08:19:00;;;;;;;2.07;1.97;;;;;;;11.95;100.00;100022.31;5017042;28;20494;-55
2022/10/23 08:21:27;;;;;;;4.53;1.40;;;;;;;11.91;100.00;100010.03;5028743;28;20475;-56
2022/10/23 08:23:56;;;;;;;2.13;1.50;;;;;;;12.32;100.00;100019.06;5028533;28;20495;-56
2022/10/23 08:26:24;;;;;;;1.80;1.47;;;;;;;12.27;100.00;100030.84;5028695;28;20455;-56
2022/10/23 08:28:51;;;;;;;1.97;1.87;;;;;;;12.20;100.00;100016.91;5030063;28;20782;-55
2022/10/23 08:31:19;;;;;;;1.97;1.73;;;;;;;12.37;100.00;100033.09;5032301;28;20521;-56
2022/10/23 08:33:46;;;;;;;5.03;2.07;;;;;;;12.49;100.00;100022.88;5032343;28;20892;-56
2022/10/23 08:36:24;;;;;;;1.40;1.30;;;;;;;12.55;100.00;100041.25;5032650;28;20509;-56
2022/10/23 08:38:55;;;;;;;3.33;1.93;;;;;;;12.45;100.00;100040.75;5012884;28;20448;-56
2022/10/23 08:41:26;;;;;;;1.30;1.20;;;;;;;12.54;100.00;100036.84;5025784;28;20901;-56
2022/10/23 08:44:15;;;;;;;1.77;1.13;;;;;;;12.96;100.00;100031.53;5022404;28;20878;-56
2022/10/23 08:46:58;;;;;;;1.27;1.10;;;;;;;12.68;100.00;100031.81;5032037;28;20447;-56
2022/10/23 08:49:49;;;;;;;1.83;1.73;;;;;;;12.51;100.00;100029.84;5032470;28;20458;-56
2022/10/23 08:52:47;;;;;;;2.20;2.03;;;;;;;12.62;100.00;100032.09;5032701;28;21038;-56
2022/10/23 08:55:25;;;;;;;1.30;1.20;;;;;;;12.59;100.00;100010.88;5012872;28;20452;-56
2022/10/23 08:57:58;;;;;;;4.77;2.33;;;;;;;12.66;100.00;100007.03;5030830;28;20936;-56
2022/10/23 09:00:25;;;;;;;1.47;1.37;;;;;;;12.54;100.00;100013.72;5032173;28;20455;-55
2022/10/23 09:02:53;;;;;;;3.23;2.93;;;;;;;12.70;100.00;100009.50;5031619;28;20565;-56
2022/10/23 09:05:48;;;;;;;23.30;2.63;;;;;;;13.21;100.00;100010.91;5032422;28;20468;-56
2022/10/23 09:08:42;;;;;;;3.23;1.60;;;;;;;13.15;100.00;100000.44;5012039;28;20448;-55
2022/10/23 09:11:20;;;;;;;1.50;1.40;;;;;;;12.91;100.00;100014.88;5029528;28;21035;-56
2022/10/23 09:14:23;;;;;;;2.23;1.37;;;;;;;13.14;100.00;100008.53;5022496;28;20460;-56
2022/10/23 09:17:03;;;;;;;2.20;1.70;;;;;;;13.21;100.00;100007.38;5031912;28;20470;-55
2022/10/23 09:19:30;;;;;;;1.40;1.30;;;;;;;13.18;100.00;100007.47;5021195;28;20447;-55
2022/10/23 09:21:57;;;;;;;1.57;1.20;;;;;;;13.70;100.00;100014.03;5031886;28;20487;-55
2022/10/23 09:24:27;;;;;;;2.33;2.13;;;;;;;13.88;100.00;100005.19;5031767;28;20495;-55
2022/10/23 09:26:53;;;;;;;2.40;1.70;;;;;;;14.05;100.00;100019.56;5031623;28;20972;-56
2022/10/23 09:29:31;;;;;;;2.20;1.97;;;;;;;13.89;100.00;100016.75;5031679;28;20426;-56
2022/10/23 09:32:00;;;;;;;2.50;1.97;;;;;;;14.35;100.00;100011.88;5031136;28;20449;-56
2022/10/23 09:34:29;;;;;;;2.27;2.03;;;;;;;14.30;100.00;100012.09;5031852;28;20451;-56
2022/10/23 09:36:58;;;;;;;2.97;2.67;;;;;;;14.06;100.00;99999.91;5031792;28;20856;-56
2022/10/23 09:39:28;;;;;;;4.87;3.73;;;;;;;14.39;100.00;99990.28;5046698;28;20470;-56
2022/10/23 09:41:56;;;;;;;1.57;1.20;;;;;;;14.08;100.00;99981.97;5017633;28;20472;-56
2022/10/23 09:44:28;;;;;;;1.57;1.10;;;;;;;14.01;100.00;99967.19;5025586;28;20491;-56
2022/10/23 09:47:07;;;;;;;0.80;0.70;;;;;;;14.47;100.00;99964.03;5031333;28;20455;-56
2022/10/23 09:49:33;;;;;;;1.60;1.50;;;;;;;14.62;100.00;99967.75;5029464;28;20459;-57
2022/10/23 09:52:09;;;;;;;2.60;2.40;;;;;;;14.54;100.00;99964.59;5029733;28;20544;-56
2022/10/23 09:54:45;;;;;;;1.83;1.67;;;;;;;14.02;100.00;99958.25;5031547;28;20521;-56
2022/10/23 09:57:21;;;;;;;1.00;1.00;;;;;;;14.09;100.00;99968.53;5030654;28;20501;-56
2022/10/23 09:59:53;;;;;;;1.27;1.10;;;;;;;14.13;100.00;99958.59;5012200;28;20514;-56
2022/10/23 10:02:34;;;;;;;1.53;1.43;;;;;;;14.34;100.00;99965.53;5030914;28;20512;-56
2022/10/23 10:05:25;;;;;;;1.73;1.63;;;;;;;14.29;100.00;99980.97;5031324;28;20518;-56
2022/10/23 10:07:58;;;;;;;2.00;1.90;;;;;;;14.11;100.00;99971.13;5011488;28;20457;-55
2022/10/23 10:10:33;;;;;;;2.00;1.80;;;;;;;14.20;100.00;99974.25;5027003;28;20477;-56
2022/10/23 10:13:09;;;;;;;2.27;2.03;;;;;;;14.12;100.00;99971.09;5040566;28;20903;-56
2022/10/23 10:15:51;;;;;;;1.23;1.10;;;;;;;14.56;100.00;99968.06;5030355;28;20570;-56
2022/10/23 10:18:23;;;;;;;1.63;1.53;;;;;;;14.73;100.00;99961.84;5019897;28;20526;-57
2022/10/23 10:21:04;;;;;;;1.70;1.60;;;;;;;14.37;100.00;99968.06;5011325;28;20940;-56
2022/10/23 10:23:42;;;;;;;1.87;1.77;;;;;;;14.64;100.00;99967.66;5026942;28;20499;-54
2022/10/23 10:26:29;;;;;;;2.50;2.30;;;;;;;14.41;100.00;99958.09;5030883;28;20447;-56
2022/10/23 10:29:13;;;;;;;1.77;1.67;;;;;;;14.34;100.00;99956.66;5020487;28;20466;-56
2022/10/23 10:31:55;;;;;;;2.67;1.67;;;;;;;14.22;100.00;99947.44;5016972;28;20965;-56
2022/10/23 10:34:40;;;;;;;2.83;2.60;;;;;;;14.27;100.00;99949.91;5030257;28;20459;-56
2022/10/23 10:37:24;;;;;;;6.40;2.73;;;;;;;14.44;100.00;99948.16;5027062;28;20517;-56
2022/10/23 10:40:01;;;;;;;1.60;1.50;;;;;;;14.71;100.00;99950.38;5026460;28;20452;-56
2022/10/23 10:42:44;;;;;;;2.13;2.03;;;;;;;14.50;100.00;99939.81;5024099;28;20483;-56
2022/10/23 10:45:52;;;;;;;5.80;1.90;;;;;;;14.59;100.00;99925.09;5030617;28;20452;-56
2022/10/23 10:48:27;;;;;;;1.40;1.30;;;;;;;14.46;100.00;99905.28;4983944;28;20522;-56
2022/10/23 10:51:01;;;;;;;8.77;1.90;;;;;;;14.58;100.00;99890.41;5029678;28;20883;-56
2022/10/23 10:53:46;;;;;;;2.20;2.10;;;;;;;14.75;100.00;99887.72;5018333;28;20843;-56
2022/10/23 10:56:14;;;;;;;1.80;1.70;;;;;;;15.07;100.00;99878.84;5029926;28;20890;-56
2022/10/23 10:58:49;;;;;;;2.50;2.00;;;;;;;14.85;100.00;99864.91;5030267;28;20455;-57
2022/10/23 11:01:25;;;;;;;1.70;1.60;;;;;;;14.98;100.00;99883.84;5029657;28;20517;-57
2022/10/23 11:04:00;;;;;;;1.90;1.80;;;;;;;15.27;100.00;99904.56;5029195;28;20522;-57
2022/10/23 11:06:30;;;;;;;2.40;2.20;;;;;;;15.35;100.00;99914.84;5030065;28;20456;-57
2022/10/23 11:09:03;;;;;;;2.57;2.47;;;;;;;15.50;100.00;99908.69;5029745;28;21003;-58
2022/10/23 11:11:47;;;;;;;10.03;2.73;;;;;;;16.03;100.00;99904.81;5042419;28;20560;-58
2022/10/23 11:14:20;;;;;;;2.37;2.20;;;;;;;15.81;100.00;99915.03;5016455;28;20521;-58
2022/10/23 11:16:52;;;;;;;5.37;3.30;;;;;;;15.85;100.00;99916.59;5023456;28;20460;-58
2022/10/23 11:19:25;;;;;;;3.03;2.80;;;;;;;16.18;100.00;99916.50;5028993;28;20460;-58
2022/10/23 11:22:20;;;;;;;5.07;2.30;;;;;;;16.07;100.00;99901.03;5029446;28;20477;-58
2022/10/23 11:24:52;;;;;;;3.23;3.03;;;;;;;16.35;100.00;99894.91;5029559;28;20532;-58
2022/10/23 11:27:56;;;;;;;2.57;2.40;;;;;;;16.08;100.00;99885.78;5028930;28;20441;-58
2022/10/23 11:30:41;;;;;;;5.80;2.00;;;;;;;16.41;100.00;99889.19;5009872;28;20918;-59
2022/10/23 11:33:28;;;;;;;2.80;2.70;;;;;;;16.66;100.00;99890.41;5020030;28;20472;-58
2022/10/23 11:36:16;;;;;;;3.20;3.00;;;;;;;17.14;100.00;99865.13;5022785;28;20447;-58
2022/10/23 11:38:46;;;;;;;2.47;1.73;;;;;;;17.48;100.00;99864.69;5018187;28;20434;-57